sensor_id;sensor_type;location;lat;lon;timestamp;pressure;altitude;pressure_sealevel;temperature;humidity
64853;BME280;56050;55.558;-4.644;2023-08-12T00:01:29;100674.25;;;19.02;63.73
64853;BME280;56050;55.558;-4.644;2023-08-12T00:03:54;100671.66;;;18.98;63.67
64853;BME280;56050;55.558;-4.644;2023-08-12T00:06:19;100670.13;;;18.97;63.64
64853;BME280;56050;55.558;-4.644;2023-08-12T00:08:45;100673.31;;;18.96;63.41
64853;BME280;56050;55.558;-4.644;2023-08-12T00:11:10;100667.53;;;18.94;63.48
64853;BME280;56050;55.558;-4.644;2023-08-12T00:13:36;100666.00;;;18.93;63.77
64853;BME280;56050;55.558;-4.644;2023-08-12T00:16:01;100668.72;;;18.93;63.74
64853;BME280;56050;55.558;-4.644;2023-08-12T00:18:26;100661.31;;;18.93;63.73
64853;BME280;56050;55.558;-4.644;2023-08-12T00:20:52;100651.56;;;18.92;63.71
64853;BME280;56050;55.558;-4.644;2023-08-12T00:23:18;100648.84;;;18.92;63.61
64853;BME280;56050;55.558;-4.644;2023-08-12T00:25:43;100654.75;;;18.91;63.82
64853;BME280;56050;55.558;-4.644;2023-08-12T00:28:09;100645.81;;;18.90;63.89
64853;BME280;56050;55.558;-4.644;2023-08-12T00:30:35;100645.03;;;18.90;63.82
64853;BME280;56050;55.558;-4.644;2023-08-12T00:33:01;100652.47;;;18.89;63.77
64853;BME280;56050;55.558;-4.644;2023-08-12T00:35:26;100649.44;;;18.87;63.89
64853;BME280;56050;55.558;-4.644;2023-08-12T00:37:51;100636.22;;;18.86;63.80
64853;BME280;56050;55.558;-4.644;2023-08-12T00:40:17;100638.31;;;18.82;63.98
64853;BME280;56050;55.558;-4.644;2023-08-12T00:42:42;100642.28;;;18.81;63.87
64853;BME280;56050;55.558;-4.644;2023-08-12T00:45:09;100636.47;;;18.78;63.96
64853;BME280;56050;55.558;-4.644;2023-08-12T00:47:35;100639.66;;;18.77;63.95
64853;BME280;56050;55.558;-4.644;2023-08-12T00:50:01;100640.41;;;18.77;64.12
64853;BME280;56050;55.558;-4.644;2023-08-12T00:52:27;100642.81;;;18.75;64.06
64853;BME280;56050;55.558;-4.644;2023-08-12T00:54:53;100642.50;;;18.73;64.20
64853;BME280;56050;55.558;-4.644;2023-08-12T00:57:19;100642.97;;;18.72;64.19
64853;BME280;56050;55.558;-4.644;2023-08-12T00:59:44;100639.88;;;18.70;64.19
64853;BME280;56050;55.558;-4.644;2023-08-12T01:02:12;100635.19;;;18.70;64.12
64853;BME280;56050;55.558;-4.644;2023-08-12T01:04:37;100624.28;;;18.70;64.01
64853;BME280;56050;55.558;-4.644;2023-08-12T01:07:03;100620.34;;;18.71;64.19
64853;BME280;56050;55.558;-4.644;2023-08-12T01:09:29;100618.41;;;18.72;64.11
64853;BME280;56050;55.558;-4.644;2023-08-12T01:12:02;100618.41;;;18.72;64.27
64853;BME280;56050;55.558;-4.644;2023-08-12T01:17:04;100611.41;;;18.71;64.21
64853;BME280;56050;55.558;-4.644;2023-08-12T01:19:38;100604.75;;;18.72;64.41
64853;BME280;56050;55.558;-4.644;2023-08-12T01:22:07;100608.97;;;18.73;64.08
64853;BME280;56050;55.558;-4.644;2023-08-12T01:24:41;100601.13;;;18.75;64.34
64853;BME280;56050;55.558;-4.644;2023-08-12T01:27:08;100602.22;;;18.77;64.20
64853;BME280;56050;55.558;-4.644;2023-08-12T01:29:37;100605.25;;;18.80;63.96
64853;BME280;56050;55.558;-4.644;2023-08-12T01:35:09;100597.06;;;18.80;64.09
64853;BME280;56050;55.558;-4.644;2023-08-12T01:37:37;100597.50;;;18.78;63.88
64853;BME280;56050;55.558;-4.644;2023-08-12T01:40:05;100597.19;;;18.76;64.01
64853;BME280;56050;55.558;-4.644;2023-08-12T01:42:34;100602.03;;;18.72;64.10
64853;BME280;56050;55.558;-4.644;2023-08-12T01:45:01;100600.94;;;18.69;64.19
64853;BME280;56050;55.558;-4.644;2023-08-12T01:47:28;100593.66;;;18.66;64.01
64853;BME280;56050;55.558;-4.644;2023-08-12T01:49:53;100591.34;;;18.65;64.16
64853;BME280;56050;55.558;-4.644;2023-08-12T01:52:19;100583.91;;;18.65;63.98
64853;BME280;56050;55.558;-4.644;2023-08-12T01:54:44;100579.66;;;18.64;64.25
64853;BME280;56050;55.558;-4.644;2023-08-12T01:57:10;100578.16;;;18.63;64.30
64853;BME280;56050;55.558;-4.644;2023-08-12T01:59:36;100573.47;;;18.64;63.89
64853;BME280;56050;55.558;-4.644;2023-08-12T02:02:02;100573.91;;;18.62;64.19
64853;BME280;56050;55.558;-4.644;2023-08-12T02:04:27;100578.16;;;18.63;64.00
64853;BME280;56050;55.558;-4.644;2023-08-12T02:06:54;100565.72;;;18.62;64.26
64853;BME280;56050;55.558;-4.644;2023-08-12T02:09:19;100568.44;;;18.62;64.03
64853;BME280;56050;55.558;-4.644;2023-08-12T02:11:45;100560.25;;;18.62;64.25
64853;BME280;56050;55.558;-4.644;2023-08-12T02:14:11;100557.97;;;18.61;64.22
64853;BME280;56050;55.558;-4.644;2023-08-12T02:16:36;100557.97;;;18.61;64.13
64853;BME280;56050;55.558;-4.644;2023-08-12T02:19:01;100547.06;;;18.61;64.13
64853;BME280;56050;55.558;-4.644;2023-08-12T02:21:27;100547.38;;;18.63;63.91
64853;BME280;56050;55.558;-4.644;2023-08-12T02:23:52;100540.38;;;18.62;63.96
64853;BME280;56050;55.558;-4.644;2023-08-12T02:26:18;100538.88;;;18.61;63.75
64853;BME280;56050;55.558;-4.644;2023-08-12T02:28:43;100530.81;;;18.57;63.88
64853;BME280;56050;55.558;-4.644;2023-08-12T02:31:09;100524.59;;;18.57;64.01
64853;BME280;56050;55.558;-4.644;2023-08-12T02:33:34;100526.56;;;18.56;63.93
64853;BME280;56050;55.558;-4.644;2023-08-12T02:36:00;100532.00;;;18.56;64.13
64853;BME280;56050;55.558;-4.644;2023-08-12T02:38:25;100525.03;;;18.55;63.96
64853;BME280;56050;55.558;-4.644;2023-08-12T02:40:51;100519.91;;;18.57;64.16
64853;BME280;56050;55.558;-4.644;2023-08-12T02:43:17;100517.16;;;18.57;64.41
64853;BME280;56050;55.558;-4.644;2023-08-12T02:45:42;100512.03;;;18.59;64.34
64853;BME280;56050;55.558;-4.644;2023-08-12T02:48:10;100503.84;;;18.59;64.17
64853;BME280;56050;55.558;-4.644;2023-08-12T02:50:36;100506.88;;;18.61;64.18
64853;BME280;56050;55.558;-4.644;2023-08-12T02:53:02;100509.16;;;18.63;64.07
64853;BME280;56050;55.558;-4.644;2023-08-12T02:55:27;100511.44;;;18.64;64.16
64853;BME280;56050;55.558;-4.644;2023-08-12T02:57:53;100518.75;;;18.67;64.05
64853;BME280;56050;55.558;-4.644;2023-08-12T03:00:19;100506.63;;;18.68;64.18
64853;BME280;56050;55.558;-4.644;2023-08-12T03:02:44;100505.75;;;18.71;64.29
64853;BME280;56050;55.558;-4.644;2023-08-12T03:05:10;100498.94;;;18.76;64.13
64853;BME280;56050;55.558;-4.644;2023-08-12T03:07:35;100497.28;;;18.78;64.14
64853;BME280;56050;55.558;-4.644;2023-08-12T03:10:01;100495.31;;;18.79;64.00
64853;BME280;56050;55.558;-4.644;2023-08-12T03:12:26;100490.63;;;18.80;63.96
64853;BME280;56050;55.558;-4.644;2023-08-12T03:14:51;100490.63;;;18.80;64.20
64853;BME280;56050;55.558;-4.644;2023-08-12T03:17:17;100489.41;;;18.81;63.71
64853;BME280;56050;55.558;-4.644;2023-08-12T03:19:43;100488.50;;;18.84;63.98
64853;BME280;56050;55.558;-4.644;2023-08-12T03:22:08;100478.81;;;18.83;64.00
64853;BME280;56050;55.558;-4.644;2023-08-12T03:24:34;100487.75;;;18.83;63.86
64853;BME280;56050;55.558;-4.644;2023-08-12T03:26:59;100474.84;;;18.84;64.21
64853;BME280;56050;55.558;-4.644;2023-08-12T03:29:25;100474.84;;;18.84;63.92
64853;BME280;56050;55.558;-4.644;2023-08-12T03:31:50;100474.84;;;18.84;64.18
64853;BME280;56050;55.558;-4.644;2023-08-12T03:34:16;100467.88;;;18.83;63.88
64853;BME280;56050;55.558;-4.644;2023-08-12T03:36:42;100466.66;;;18.84;64.03
64853;BME280;56050;55.558;-4.644;2023-08-12T03:39:07;100468.19;;;18.85;64.22
64853;BME280;56050;55.558;-4.644;2023-08-12T03:41:33;100458.81;;;18.86;64.03
64853;BME280;56050;55.558;-4.644;2023-08-12T03:43:58;100458.81;;;18.86;64.26
64853;BME280;56050;55.558;-4.644;2023-08-12T03:46:24;100452.56;;;18.85;64.14
64853;BME280;56050;55.558;-4.644;2023-08-12T03:48:49;100444.09;;;18.83;64.04
64853;BME280;56050;55.558;-4.644;2023-08-12T03:51:15;100444.81;;;18.84;64.47
64853;BME280;56050;55.558;-4.644;2023-08-12T03:53:40;100439.81;;;18.82;64.26
64853;BME280;56050;55.558;-4.644;2023-08-12T03:56:06;100436.03;;;18.80;64.44
64853;BME280;56050;55.558;-4.644;2023-08-12T03:58:31;100435.25;;;18.79;64.36
64853;BME280;56050;55.558;-4.644;2023-08-12T04:00:57;100435.25;;;18.79;64.34
64853;BME280;56050;55.558;-4.644;2023-08-12T04:03:23;100431.75;;;18.78;64.52
64853;BME280;56050;55.558;-4.644;2023-08-12T04:05:51;100417.81;;;18.76;64.49
64853;BME280;56050;55.558;-4.644;2023-08-12T04:08:22;100415.22;;;18.73;64.44
64853;BME280;56050;55.558;-4.644;2023-08-12T04:10:50;100415.69;;;18.71;64.43
64853;BME280;56050;55.558;-4.644;2023-08-12T04:13:15;100411.13;;;18.68;64.65
64853;BME280;56050;55.558;-4.644;2023-08-12T04:15:41;100408.09;;;18.66;64.74
64853;BME280;56050;55.558;-4.644;2023-08-12T04:18:07;100408.09;;;18.66;64.50
64853;BME280;56050;55.558;-4.644;2023-08-12T04:20:32;100402.63;;;18.66;64.65
64853;BME280;56050;55.558;-4.644;2023-08-12T04:22:58;100405.34;;;18.66;64.77
64853;BME280;56050;55.558;-4.644;2023-08-12T04:25:23;100383.53;;;18.66;64.75
64853;BME280;56050;55.558;-4.644;2023-08-12T04:27:50;100380.03;;;18.66;64.71
64853;BME280;56050;55.558;-4.644;2023-08-12T04:30:18;100373.03;;;18.65;64.76
64853;BME280;56050;55.558;-4.644;2023-08-12T04:32:44;100378.63;;;18.61;64.78
64853;BME280;56050;55.558;-4.644;2023-08-12T04:35:09;100378.63;;;18.61;64.87
64853;BME280;56050;55.558;-4.644;2023-08-12T04:37:35;100373.63;;;18.60;64.66
64853;BME280;56050;55.558;-4.644;2023-08-12T04:40:01;100371.66;;;18.60;64.99
64853;BME280;56050;55.558;-4.644;2023-08-12T04:42:28;100377.13;;;18.60;64.89
64853;BME280;56050;55.558;-4.644;2023-08-12T04:44:54;100365.91;;;18.58;64.87
64853;BME280;56050;55.558;-4.644;2023-08-12T04:47:19;100362.41;;;18.58;64.76
64853;BME280;56050;55.558;-4.644;2023-08-12T04:49:44;100358.03;;;18.60;64.99
64853;BME280;56050;55.558;-4.644;2023-08-12T04:52:10;100368.94;;;18.60;65.13
64853;BME280;56050;55.558;-4.644;2023-08-12T04:54:35;100365.44;;;18.60;65.13
64853;BME280;56050;55.558;-4.644;2023-08-12T04:57:01;100361.53;;;18.61;65.09
64853;BME280;56050;55.558;-4.644;2023-08-12T04:59:26;100366.97;;;18.61;64.89
64853;BME280;56050;55.558;-4.644;2023-08-12T05:01:52;100363.19;;;18.58;65.08
64853;BME280;56050;55.558;-4.644;2023-08-12T05:04:17;100350.88;;;18.54;65.06
64853;BME280;56050;55.558;-4.644;2023-08-12T05:06:43;100350.69;;;18.48;65.38
64853;BME280;56050;55.558;-4.644;2023-08-12T05:09:08;100361.41;;;18.43;65.45
64853;BME280;56050;55.558;-4.644;2023-08-12T05:11:34;100353.81;;;18.38;65.34
64853;BME280;56050;55.558;-4.644;2023-08-12T05:13:59;100354.53;;;18.29;65.72
64853;BME280;56050;55.558;-4.644;2023-08-12T05:16:25;100348.59;;;18.22;65.95
64853;BME280;56050;55.558;-4.644;2023-08-12T05:18:50;100341.00;;;18.16;65.97
64853;BME280;56050;55.558;-4.644;2023-08-12T05:21:16;100344.72;;;18.10;66.22
64853;BME280;56050;55.558;-4.644;2023-08-12T05:23:41;100335.94;;;18.06;66.50
64853;BME280;56050;55.558;-4.644;2023-08-12T05:26:07;100341.06;;;18.04;66.82
64853;BME280;56050;55.558;-4.644;2023-08-12T05:28:32;100331.81;;;18.01;66.50
64853;BME280;56050;55.558;-4.644;2023-08-12T05:30:58;100341.94;;;18.01;67.04
64853;BME280;56050;55.558;-4.644;2023-08-12T05:33:23;100338.91;;;17.99;67.01
64853;BME280;56050;55.558;-4.644;2023-08-12T05:35:49;100337.38;;;17.98;66.90
64853;BME280;56050;55.558;-4.644;2023-08-12T05:38:14;100331.19;;;17.97;67.22
64853;BME280;56050;55.558;-4.644;2023-08-12T05:40:40;100334.34;;;17.96;67.32
64853;BME280;56050;55.558;-4.644;2023-08-12T05:43:06;100327.41;;;17.95;67.26
64853;BME280;56050;55.558;-4.644;2023-08-12T05:45:31;100325.41;;;17.95;67.59
64853;BME280;56050;55.558;-4.644;2023-08-12T05:47:57;100329.34;;;17.94;67.59
64853;BME280;56050;55.558;-4.644;2023-08-12T05:50:22;100332.09;;;17.94;67.73
64853;BME280;56050;55.558;-4.644;2023-08-12T05:52:48;100334.03;;;17.94;67.45
64853;BME280;56050;55.558;-4.644;2023-08-12T05:55:13;100328.59;;;17.94;67.93
64853;BME280;56050;55.558;-4.644;2023-08-12T05:57:39;100323.56;;;17.92;67.58
64853;BME280;56050;55.558;-4.644;2023-08-12T06:00:05;100324.50;;;17.89;67.90
64853;BME280;56050;55.558;-4.644;2023-08-12T06:02:31;100322.50;;;17.90;68.05
64853;BME280;56050;55.558;-4.644;2023-08-12T06:04:56;100326.75;;;17.91;67.76
64853;BME280;56050;55.558;-4.644;2023-08-12T06:07:22;100316.63;;;17.91;67.90
64853;BME280;56050;55.558;-4.644;2023-08-12T06:09:49;100329.03;;;17.92;68.17
64853;BME280;56050;55.558;-4.644;2023-08-12T06:12:15;100322.84;;;17.92;67.98
64853;BME280;56050;55.558;-4.644;2023-08-12T06:14:40;100323.25;;;17.90;68.13
64853;BME280;56050;55.558;-4.644;2023-08-12T06:17:06;100318.59;;;17.91;67.99
64853;BME280;56050;55.558;-4.644;2023-08-12T06:19:32;100322.50;;;17.90;68.28
64853;BME280;56050;55.558;-4.644;2023-08-12T06:21:57;100326.00;;;17.90;68.41
64853;BME280;56050;55.558;-4.644;2023-08-12T06:24:23;100322.50;;;17.90;68.37
64853;BME280;56050;55.558;-4.644;2023-08-12T06:26:48;100322.50;;;17.90;68.24
64853;BME280;56050;55.558;-4.644;2023-08-12T06:29:14;100328.28;;;17.92;68.30
64853;BME280;56050;55.558;-4.644;2023-08-12T06:31:39;100318.88;;;17.93;68.31
64853;BME280;56050;55.558;-4.644;2023-08-12T06:34:05;100311.94;;;17.92;68.38
64853;BME280;56050;55.558;-4.644;2023-08-12T06:36:30;100315.41;;;17.92;68.37
64853;BME280;56050;55.558;-4.644;2023-08-12T06:38:56;100307.97;;;17.93;68.25
64853;BME280;56050;55.558;-4.644;2023-08-12T06:41:21;100314.19;;;17.93;68.38
64853;BME280;56050;55.558;-4.644;2023-08-12T06:43:46;100308.75;;;17.93;68.51
64853;BME280;56050;55.558;-4.644;2023-08-12T06:46:12;100309.50;;;17.94;68.58
64853;BME280;56050;55.558;-4.644;2023-08-12T06:48:37;100310.28;;;17.94;68.37
64853;BME280;56050;55.558;-4.644;2023-08-12T06:51:03;100311.78;;;17.95;68.63
64853;BME280;56050;55.558;-4.644;2023-08-12T06:53:36;100306.31;;;17.95;68.51
64853;BME280;56050;55.558;-4.644;2023-08-12T06:56:01;100304.06;;;17.94;68.61
64853;BME280;56050;55.558;-4.644;2023-08-12T06:58:27;100306.47;;;17.92;68.97
64853;BME280;56050;55.558;-4.644;2023-08-12T07:00:52;100304.19;;;17.90;68.90
64853;BME280;56050;55.558;-4.644;2023-08-12T07:03:18;100305.72;;;17.91;68.80
64853;BME280;56050;55.558;-4.644;2023-08-12T07:05:44;100304.94;;;17.91;68.93
64853;BME280;56050;55.558;-4.644;2023-08-12T07:08:09;100307.97;;;17.93;69.05
64853;BME280;56050;55.558;-4.644;2023-08-12T07:10:38;100298.63;;;17.94;69.12
64853;BME280;56050;55.558;-4.644;2023-08-12T07:13:04;100304.81;;;17.94;68.86
64853;BME280;56050;55.558;-4.644;2023-08-12T07:15:29;100305.59;;;17.95;69.20
64853;BME280;56050;55.558;-4.644;2023-08-12T07:17:55;100295.75;;;17.97;69.16
64853;BME280;56050;55.558;-4.644;2023-08-12T07:20:20;100298.78;;;17.99;68.89
64853;BME280;56050;55.558;-4.644;2023-08-12T07:22:46;100302.59;;;18.02;69.14
64853;BME280;56050;55.558;-4.644;2023-08-12T07:25:11;100302.59;;;18.02;69.15
64853;BME280;56050;55.558;-4.644;2023-08-12T07:27:37;100307.91;;;18.05;69.13
64853;BME280;56050;55.558;-4.644;2023-08-12T07:30:02;100296.56;;;18.07;69.19
64853;BME280;56050;55.558;-4.644;2023-08-12T07:32:28;100303.97;;;18.06;68.91
64853;BME280;56050;55.558;-4.644;2023-08-12T07:34:53;100293.81;;;18.07;69.32
64853;BME280;56050;55.558;-4.644;2023-08-12T07:37:19;100302.31;;;18.09;69.00
64853;BME280;56050;55.558;-4.644;2023-08-12T07:39:44;100303.41;;;18.11;68.98
64853;BME280;56050;55.558;-4.644;2023-08-12T07:42:10;100293.56;;;18.14;69.15
64853;BME280;56050;55.558;-4.644;2023-08-12T07:44:36;100294.31;;;18.14;69.15
64853;BME280;56050;55.558;-4.644;2023-08-12T07:47:01;100300.84;;;18.17;68.92
64853;BME280;56050;55.558;-4.644;2023-08-12T07:49:27;100303.88;;;18.19;69.29
64853;BME280;56050;55.558;-4.644;2023-08-12T07:51:52;100301.47;;;18.21;69.08
64853;BME280;56050;55.558;-4.644;2023-08-12T07:54:17;100303.00;;;18.22;69.09
64853;BME280;56050;55.558;-4.644;2023-08-12T07:56:43;100295.13;;;18.24;69.16
64853;BME280;56050;55.558;-4.644;2023-08-12T07:59:08;100301.34;;;18.25;69.31
64853;BME280;56050;55.558;-4.644;2023-08-12T08:01:34;100290.44;;;18.25;69.10
64853;BME280;56050;55.558;-4.644;2023-08-12T08:03:59;100287.69;;;18.25;69.51
64853;BME280;56050;55.558;-4.644;2023-08-12T08:06:24;100291.63;;;18.24;69.30
64853;BME280;56050;55.558;-4.644;2023-08-12T08:08:50;100293.47;;;18.27;69.18
64853;BME280;56050;55.558;-4.644;2023-08-12T08:11:15;100289.53;;;18.28;69.23
64853;BME280;56050;55.558;-4.644;2023-08-12T08:13:41;100290.31;;;18.28;69.70
64853;BME280;56050;55.558;-4.644;2023-08-12T08:16:06;100292.56;;;18.30;69.82
64853;BME280;56050;55.558;-4.644;2023-08-12T08:18:32;100299.84;;;18.33;69.61
64853;BME280;56050;55.558;-4.644;2023-08-12T08:20:57;100286.09;;;18.36;69.74
64853;BME280;56050;55.558;-4.644;2023-08-12T08:23:23;100288.97;;;18.42;69.65
64853;BME280;56050;55.558;-4.644;2023-08-12T08:25:48;100291.88;;;18.47;69.63
64853;BME280;56050;55.558;-4.644;2023-08-12T08:28:14;100287.81;;;18.52;69.87
64853;BME280;56050;55.558;-4.644;2023-08-12T08:30:39;100293.88;;;18.56;69.66
64853;BME280;56050;55.558;-4.644;2023-08-12T08:33:05;100294.03;;;18.61;69.59
64853;BME280;56050;55.558;-4.644;2023-08-12T08:35:30;100294.66;;;18.65;69.69
64853;BME280;56050;55.558;-4.644;2023-08-12T08:37:56;100283.91;;;18.71;69.79
64853;BME280;56050;55.558;-4.644;2023-08-12T08:40:21;100285.63;;;18.77;69.62
64853;BME280;56050;55.558;-4.644;2023-08-12T08:42:47;100284.25;;;18.82;69.73
64853;BME280;56050;55.558;-4.644;2023-08-12T08:45:17;100281.69;;;18.88;69.48
64853;BME280;56050;55.558;-4.644;2023-08-12T08:47:43;100286.53;;;18.93;69.54
64853;BME280;56050;55.558;-4.644;2023-08-12T08:50:10;100273.81;;;18.99;69.34
64853;BME280;56050;55.558;-4.644;2023-08-12T08:52:36;100280.19;;;19.05;69.45
64853;BME280;56050;55.558;-4.644;2023-08-12T08:55:03;100284.28;;;19.09;69.51
64853;BME280;56050;55.558;-4.644;2023-08-12T08:57:29;100286.38;;;19.14;69.61
64853;BME280;56050;55.558;-4.644;2023-08-12T08:59:55;100291.84;;;19.23;69.58
64853;BME280;56050;55.558;-4.644;2023-08-12T09:02:20;100293.97;;;19.28;69.30
64853;BME280;56050;55.558;-4.644;2023-08-12T09:04:46;100298.38;;;19.35;69.36
64853;BME280;56050;55.558;-4.644;2023-08-12T09:07:13;100288.06;;;19.39;69.42
64853;BME280;56050;55.558;-4.644;2023-08-12T09:09:48;100288.41;;;19.41;69.30
64853;BME280;56050;55.558;-4.644;2023-08-12T09:12:15;100299.63;;;19.43;69.30
64853;BME280;56050;55.558;-4.644;2023-08-12T09:14:44;100303.56;;;19.42;69.30
64853;BME280;56050;55.558;-4.644;2023-08-12T09:17:10;100299.16;;;19.45;69.26
64853;BME280;56050;55.558;-4.644;2023-08-12T09:19:36;100301.44;;;19.46;69.12
64853;BME280;56050;55.558;-4.644;2023-08-12T09:22:05;100300.97;;;19.48;69.19
64853;BME280;56050;55.558;-4.644;2023-08-12T09:24:30;100295.84;;;19.50;68.90
64853;BME280;56050;55.558;-4.644;2023-08-12T09:26:56;100300.53;;;19.49;69.03
64853;BME280;56050;55.558;-4.644;2023-08-12T09:29:34;100304.47;;;19.48;69.22
64853;BME280;56050;55.558;-4.644;2023-08-12T09:32:18;100301.75;;;19.48;69.00
64853;BME280;56050;55.558;-4.644;2023-08-12T09:34:54;100303.28;;;19.49;69.09
64853;BME280;56050;55.558;-4.644;2023-08-12T09:37:21;100300.06;;;19.51;69.08
64853;BME280;56050;55.558;-4.644;2023-08-12T09:39:48;100301.31;;;19.50;68.90
64853;BME280;56050;55.558;-4.644;2023-08-12T09:42:15;100305.53;;;19.51;68.96
64853;BME280;56050;55.558;-4.644;2023-08-12T09:44:41;100302.34;;;19.52;69.16
64853;BME280;56050;55.558;-4.644;2023-08-12T09:47:07;100305.09;;;19.52;69.01
64853;BME280;56050;55.558;-4.644;2023-08-12T09:49:34;100302.03;;;19.50;68.77
64853;BME280;56050;55.558;-4.644;2023-08-12T09:52:00;100304.03;;;19.50;68.77
64853;BME280;56050;55.558;-4.644;2023-08-12T09:54:27;100302.34;;;19.52;68.95
64853;BME280;56050;55.558;-4.644;2023-08-12T09:56:56;100307.66;;;19.56;68.95
64853;BME280;56050;55.558;-4.644;2023-08-12T09:59:22;100309.75;;;19.61;68.95
64853;BME280;56050;55.558;-4.644;2023-08-12T10:01:52;100310.53;;;19.61;68.78
64853;BME280;56050;55.558;-4.644;2023-08-12T10:04:18;100310.53;;;19.61;68.83
64853;BME280;56050;55.558;-4.644;2023-08-12T10:06:47;100315.22;;;19.61;68.72
64853;BME280;56050;55.558;-4.644;2023-08-12T10:09:15;100315.22;;;19.61;68.62
64853;BME280;56050;55.558;-4.644;2023-08-12T10:11:42;100315.69;;;19.59;68.69
64853;BME280;56050;55.558;-4.644;2023-08-12T10:14:10;100327.84;;;19.58;68.80
64853;BME280;56050;55.558;-4.644;2023-08-12T10:16:36;100316.16;;;19.58;68.68
64853;BME280;56050;55.558;-4.644;2023-08-12T10:19:02;100319.19;;;19.60;68.55
64853;BME280;56050;55.558;-4.644;2023-08-12T10:21:29;100321.44;;;19.61;68.54
64853;BME280;56050;55.558;-4.644;2023-08-12T10:23:57;100333.16;;;19.62;68.52
64853;BME280;56050;55.558;-4.644;2023-08-12T10:26:24;100320.09;;;19.66;68.62
64853;BME280;56050;55.558;-4.644;2023-08-12T10:28:50;100322.22;;;19.71;68.56
64853;BME280;56050;55.558;-4.644;2023-08-12T10:31:15;100325.84;;;19.77;68.45
64853;BME280;56050;55.558;-4.644;2023-08-12T10:33:41;100317.03;;;19.82;68.47
64853;BME280;56050;55.558;-4.644;2023-08-12T10:36:08;100322.34;;;19.85;68.27
64853;BME280;56050;55.558;-4.644;2023-08-12T10:38:33;100318.22;;;19.90;68.05
64853;BME280;56050;55.558;-4.644;2023-08-12T10:41:21;100319.56;;;19.94;68.22
64853;BME280;56050;55.558;-4.644;2023-08-12T10:46:42;100333.38;;;20.09;68.27
64853;BME280;56050;55.558;-4.644;2023-08-12T10:49:14;100329.84;;;20.18;68.04
64853;BME280;56050;55.558;-4.644;2023-08-12T10:51:52;100330.75;;;20.24;67.84
64853;BME280;56050;55.558;-4.644;2023-08-12T10:54:25;100331.63;;;20.30;67.67
64853;BME280;56050;55.558;-4.644;2023-08-12T11:04:53;100334.88;;;20.52;67.34
64853;BME280;56050;55.558;-4.644;2023-08-12T11:07:20;100328.22;;;20.53;67.20
64853;BME280;56050;55.558;-4.644;2023-08-12T11:09:51;100342.50;;;20.57;66.98
64853;BME280;56050;55.558;-4.644;2023-08-12T11:12:18;100335.63;;;20.62;66.83
64853;BME280;56050;55.558;-4.644;2023-08-12T11:14:48;100329.97;;;20.65;66.94
64853;BME280;56050;55.558;-4.644;2023-08-12T11:17:15;100326.59;;;20.70;66.96
64853;BME280;56050;55.558;-4.644;2023-08-12T11:19:43;100328.53;;;20.79;66.65
64853;BME280;56050;55.558;-4.644;2023-08-12T11:22:09;100320.25;;;20.88;66.57
64853;BME280;56050;55.558;-4.644;2023-08-12T11:24:40;100327.06;;;20.92;66.68
64853;BME280;56050;55.558;-4.644;2023-08-12T11:27:08;100327.66;;;20.96;66.28
64853;BME280;56050;55.558;-4.644;2023-08-12T11:29:34;100328.06;;;21.04;66.34
64853;BME280;56050;55.558;-4.644;2023-08-12T11:32:00;100326.31;;;21.16;66.24
64853;BME280;56050;55.558;-4.644;2023-08-12T11:34:26;100331.28;;;21.26;66.22
64853;BME280;56050;55.558;-4.644;2023-08-12T11:36:51;100323.19;;;21.32;66.11
64853;BME280;56050;55.558;-4.644;2023-08-12T11:39:17;100321.16;;;21.32;65.95
64853;BME280;56050;55.558;-4.644;2023-08-12T11:41:42;100318.91;;;21.31;65.84
64853;BME280;56050;55.558;-4.644;2023-08-12T11:44:21;100327.91;;;21.31;65.74
64853;BME280;56050;55.558;-4.644;2023-08-12T11:46:47;100317.50;;;21.35;65.72
64853;BME280;56050;55.558;-4.644;2023-08-12T11:49:12;100322.97;;;21.35;65.70
64853;BME280;56050;55.558;-4.644;2023-08-12T11:51:38;100325.53;;;21.39;65.75
64853;BME280;56050;55.558;-4.644;2023-08-12T11:54:04;100334.63;;;21.45;65.62
64853;BME280;56050;55.558;-4.644;2023-08-12T11:56:30;100335.78;;;21.53;65.31
64853;BME280;56050;55.558;-4.644;2023-08-12T11:58:55;100333.91;;;21.59;65.41
64853;BME280;56050;55.558;-4.644;2023-08-12T12:01:21;100338.72;;;21.64;64.99
64853;BME280;56050;55.558;-4.644;2023-08-12T12:03:53;100328.97;;;21.63;65.01
64853;BME280;56050;55.558;-4.644;2023-08-12T12:06:36;100328.69;;;21.61;65.05
64853;BME280;56050;55.558;-4.644;2023-08-12T12:09:04;100328.69;;;21.61;64.99
64853;BME280;56050;55.558;-4.644;2023-08-12T12:11:32;100325.00;;;21.64;65.03
64853;BME280;56050;55.558;-4.644;2023-08-12T12:14:02;100329.84;;;21.69;64.77
64853;BME280;56050;55.558;-4.644;2023-08-12T12:16:37;100332.84;;;21.71;64.78
64853;BME280;56050;55.558;-4.644;2023-08-12T12:19:03;100343.19;;;21.76;64.62
64853;BME280;56050;55.558;-4.644;2023-08-12T12:21:30;100345.94;;;21.76;64.55
64853;BME280;56050;55.558;-4.644;2023-08-12T12:23:56;100343.94;;;21.77;64.46
64853;BME280;56050;55.558;-4.644;2023-08-12T12:26:22;100343.94;;;21.77;64.30
64853;BME280;56050;55.558;-4.644;2023-08-12T12:28:47;100339.78;;;21.81;64.30
64853;BME280;56050;55.558;-4.644;2023-08-12T12:31:13;100335.34;;;21.84;64.34
64853;BME280;56050;55.558;-4.644;2023-08-12T12:33:38;100344.16;;;21.88;64.18
64853;BME280;56050;55.558;-4.644;2023-08-12T12:36:04;100336.50;;;21.92;63.97
64853;BME280;56050;55.558;-4.644;2023-08-12T12:38:29;100345.50;;;21.92;63.98
64853;BME280;56050;55.558;-4.644;2023-08-12T12:40:55;100340.00;;;21.92;63.83
64853;BME280;56050;55.558;-4.644;2023-08-12T12:43:20;100340.56;;;21.96;64.00
64853;BME280;56050;55.558;-4.644;2023-08-12T12:45:45;100341.22;;;22.06;63.98
64853;BME280;56050;55.558;-4.644;2023-08-12T12:48:11;100334.88;;;22.14;63.79
64853;BME280;56050;55.558;-4.644;2023-08-12T12:50:36;100336.78;;;22.23;63.47
64853;BME280;56050;55.558;-4.644;2023-08-12T12:53:03;100333.72;;;22.21;63.27